Time;durP1;ratioP1;P1;durP2;ratioP2;P2;SDS_P1;SDS_P2;PMS_P1;PMS_P2;Temp;Humidity;BMP_temperature;BMP_pressure;BME280_temperature;BME280_humidity;BME280_pressure;Samples;Min_cycle;Max_cycle;Signal;HPM_P1;HPM_P2
2024/01/30 00:01:44;;;;;;;;;27.33;20.00;;;;;0.98;90.04;102189.43;112278;243;162201;-56
2024/01/30 00:04:24;;;;;;;;;27.25;19.50;;;;;0.94;90.02;102186.14;112323;246;40079;-55
2024/01/30 00:07:05;;;;;;;;;33.00;23.00;;;;;0.91;89.90;102184.86;112553;245;39629;-55
2024/01/30 00:09:39;;;;;;;;;22.00;16.00;;;;;0.91;90.13;102180.27;112495;244;39458;-53
2024/01/30 00:12:18;;;;;;;;;28.00;19.00;;;;;0.93;90.14;102177.48;112509;244;39648;-53
2024/01/30 00:14:54;;;;;;;;;31.75;23.75;;;;;0.90;90.03;102177.48;112398;243;162861;-55
2024/01/30 00:17:36;;;;;;;;;34.50;23.00;;;;;0.90;89.93;102181.20;112445;244;39496;-55
2024/01/30 00:20:12;;;;;;;;;31.00;22.75;;;;;0.90;89.82;102187.80;112372;242;162716;-57
2024/01/30 00:22:53;;;;;;;;;19.00;14.00;;;;;0.87;89.78;102186.67;112472;244;40027;-56
2024/01/30 00:25:33;;;;;;;;;21.25;15.25;;;;;0.87;90.01;102188.45;112272;243;162985;-56
2024/01/30 00:28:16;;;;;;;;;29.00;21.00;;;;;0.90;89.99;102188.46;112188;246;39333;-56
2024/01/30 00:30:52;;;;;;;;;27.00;21.25;;;;;0.87;89.87;102185.63;112436;245;40727;-52
2024/01/30 00:33:35;;;;;;;;;22.00;16.25;;;;;0.83;89.82;102184.23;112224;246;161463;-53
2024/01/30 00:36:11;;;;;;;;;25.00;18.00;;;;;0.85;89.92;102183.95;112451;245;39962;-54
2024/01/30 00:38:45;;;;;;;;;26.75;18.00;;;;;0.81;89.81;102184.02;112237;243;161322;-54
2024/01/30 00:41:20;;;;;;;;;26.67;19.00;;;;;0.78;89.90;102185.25;112449;244;39385;-53
2024/01/30 00:43:58;;;;;;;;;26.00;20.00;;;;;0.72;89.85;102189.10;112148;243;160972;-52
2024/01/30 00:46:38;;;;;;;;;21.00;17.00;;;;;0.66;89.91;102191.40;112258;245;40586;-53
2024/01/30 00:49:21;;;;;;;;;21.50;16.00;;;;;0.62;89.88;102194.60;112339;243;161729;-55
2024/01/30 00:52:00;;;;;;;;;32.00;22.33;;;;;0.56;89.96;102195.08;112465;244;39964;-54
2024/01/30 00:54:35;;;;;;;;;22.50;18.00;;;;;0.52;89.95;102193.92;112516;244;41250;-54
2024/01/30 00:57:18;;;;;;;;;33.33;22.67;;;;;0.49;90.17;102194.39;112070;245;161506;-56
2024/01/30 00:59:59;;;;;;;;;26.00;21.00;;;;;0.48;90.20;102195.15;112447;245;39067;-52
2024/01/30 01:02:40;;;;;;;;;24.75;18.00;;;;;0.47;90.13;102193.84;112297;243;162048;-52
2024/01/30 01:05:20;;;;;;;;;21.75;16.00;;;;;0.47;90.35;102187.61;112457;244;40171;-56
2024/01/30 01:07:57;;;;;;;;;28.00;21.00;;;;;0.50;90.30;102189.04;112215;245;161850;-57
2024/01/30 01:10:43;;;;;;;;;28.25;21.00;;;;;0.47;90.34;102190.61;112418;246;40356;-55
2024/01/30 01:13:24;;;;;;;;;20.00;16.00;;;;;0.51;90.49;102185.81;112282;242;161923;-55
2024/01/30 01:16:03;;;;;;;;;28.00;20.00;;;;;0.53;90.60;102179.30;112479;245;39378;-52
2024/01/30 01:18:45;;;;;;;;;32.00;23.50;;;;;0.51;90.41;102179.45;112401;245;40779;-52
2024/01/30 01:21:28;;;;;;;;;34.75;24.50;;;;;0.45;90.42;102177.77;112374;242;161893;-55
2024/01/30 01:24:13;;;;;;;;;28.00;20.50;;;;;0.47;90.50;102179.66;112390;244;40309;-53
2024/01/30 01:26:58;;;;;;;;;26.67;20.00;;;;;0.46;90.49;102175.41;112271;242;161916;-53
2024/01/30 01:29:39;;;;;;;;;29.75;22.00;;;;;0.46;90.59;102173.13;112485;244;40030;-51
2024/01/30 01:32:19;;;;;;;;;22.75;18.25;;;;;0.44;90.47;102168.98;112337;242;161786;-51
2024/01/30 01:35:02;;;;;;;;;26.33;21.00;;;;;0.42;90.44;102168.58;112487;244;40815;-55
2024/01/30 01:37:43;;;;;;;;;33.25;24.00;;;;;0.42;90.56;102167.83;112488;244;39134;-57
2024/01/30 01:40:23;;;;;;;;;35.25;23.50;;;;;0.40;90.47;102167.95;112528;244;40386;-56
2024/01/30 01:43:07;;;;;;;;;26.33;18.00;;;;;0.36;90.47;102163.55;112550;244;39720;-57
2024/01/30 01:45:46;;;;;;;;;33.00;24.00;;;;;0.31;90.57;102158.38;112478;246;40153;-53
2024/01/30 01:48:32;;;;;;;;;27.50;19.50;;;;;0.29;90.74;102154.57;112477;245;40456;-53
2024/01/30 01:51:11;;;;;;;;;31.00;21.25;;;;;0.30;90.56;102150.79;112335;245;162725;-55
2024/01/30 01:53:46;;;;;;;;;25.33;18.00;;;;;0.29;90.60;102150.10;112491;244;40368;-55
2024/01/30 01:56:23;;;;;;;;;22.00;18.00;;;;;0.27;90.68;102148.44;112179;243;161826;-52
2024/01/30 01:59:08;;;;;;;;;26.00;20.00;;;;;0.28;90.58;102143.61;112317;245;39759;-55
2024/01/30 02:01:50;;;;;;;;;27.00;20.25;;;;;0.26;90.70;102141.41;112278;245;161794;-55
2024/01/30 02:04:34;;;;;;;;;23.00;15.67;;;;;0.25;90.80;102140.41;112389;244;39767;-56
2024/01/30 02:07:16;;;;;;;;;22.67;17.00;;;;;0.21;90.83;102141.34;112403;244;39716;-55
2024/01/30 02:09:56;;;;;;;;;33.75;23.00;;;;;0.15;90.74;102138.99;112417;244;40806;-56
2024/01/30 02:12:39;;;;;;;;;24.50;18.00;;;;;0.06;90.75;102131.85;112364;244;40313;-56
2024/01/30 02:15:21;;;;;;;;;19.33;14.00;;;;;-0.01;90.75;102128.48;112068;244;161855;-55
2024/01/30 02:18:02;;;;;;;;;25.00;18.00;;;;;-0.01;90.90;102130.80;112462;245;39597;-56
2024/01/30 02:20:46;;;;;;;;;25.00;19.50;;;;;-0.02;90.88;102126.23;112332;243;162199;-52
2024/01/30 02:23:37;;;;;;;;;26.33;19.33;;;;;-0.02;90.90;102127.48;112401;244;39719;-52
2024/01/30 02:26:18;;;;;;;;;26.50;19.00;;;;;-0.04;90.95;102128.29;112239;244;162964;-52
2024/01/30 02:28:57;;;;;;;;;26.00;20.00;;;;;-0.05;90.89;102130.67;112317;245;39577;-52
2024/01/30 02:31:36;;;;;;;;;28.00;21.50;;;;;-0.06;90.83;102132.84;112451;243;162161;-53
2024/01/30 02:34:23;;;;;;;;;23.00;18.00;;;;;-0.08;90.94;102130.67;112541;244;40202;-51
2024/01/30 02:37:03;;;;;;;;;27.00;19.00;;;;;-0.07;90.97;102133.08;112502;244;40179;-51
2024/01/30 02:39:48;;;;;;;;;27.00;19.00;;;;;-0.08;91.00;102137.57;112074;243;162368;-56
2024/01/30 02:42:27;;;;;;;;;32.00;26.00;;;;;-0.08;91.01;102148.69;112448;245;41280;-56
2024/01/30 02:45:07;;;;;;;;;27.00;20.00;;;;;-0.06;91.08;102144.88;112234;243;162293;-51
2024/01/30 02:47:46;;;;;;;;;28.00;20.50;;;;;-0.02;91.20;102145.58;112469;244;39766;-51
2024/01/30 02:50:22;;;;;;;;;29.00;19.50;;;;;-0.08;91.03;102148.19;112263;242;161834;-52
2024/01/30 02:53:03;;;;;;;;;20.75;15.25;;;;;-0.12;91.17;102143.59;112401;244;39797;-52
2024/01/30 02:55:39;;;;;;;;;26.00;18.00;;;;;-0.14;91.11;102144.42;112317;242;163266;-55
2024/01/30 02:58:22;;;;;;;;;20.50;16.25;;;;;-0.18;91.10;102145.70;112376;244;39599;-54
2024/01/30 03:00:59;;;;;;;;;26.00;19.50;;;;;-0.24;91.06;102143.31;112408;244;39242;-54
2024/01/30 03:03:47;;;;;;;;;23.25;17.50;;;;;-0.25;91.03;102142.88;112235;244;162162;-52
2024/01/30 03:06:30;;;;;;;;;25.00;18.00;;;;;-0.25;91.16;102136.69;112451;244;39127;-52
2024/01/30 03:09:15;;;;;;;;;22.33;15.33;;;;;-0.28;91.28;102135.23;112282;244;161297;-55
2024/01/30 03:11:57;;;;;;;;;23.50;18.00;;;;;-0.29;91.36;102142.90;112417;244;39142;-55
2024/01/30 03:14:34;;;;;;;;;14.50;11.00;;;;;-0.36;91.35;102144.16;112338;242;161687;-54
2024/01/30 03:17:17;;;;;;;;;21.50;15.75;;;;;-0.39;91.46;102144.80;112494;244;40078;-53
2024/01/30 03:20:06;;;;;;;;;21.75;15.75;;;;;-0.44;91.36;102146.48;112352;242;161887;-53
2024/01/30 03:22:46;;;;;;;;;29.33;20.00;;;;;-0.47;91.43;102143.64;112513;244;39871;-52
2024/01/30 03:25:25;;;;;;;;;23.50;18.50;;;;;-0.51;91.47;102142.08;112404;242;162282;-55
2024/01/30 03:28:07;;;;;;;;;23.75;18.00;;;;;-0.53;91.55;102141.13;112515;244;39566;-54
2024/01/30 03:30:47;;;;;;;;;28.00;20.00;;;;;-0.54;91.80;102139.38;112516;244;39291;-53
2024/01/30 03:33:28;;;;;;;;;24.00;17.50;;;;;-0.54;91.83;102138.36;112255;242;161706;-52
2024/01/30 03:36:11;;;;;;;;;26.50;17.25;;;;;-0.54;91.94;102140.45;112473;244;40096;-56
2024/01/30 03:38:45;;;;;;;;;30.00;19.00;;;;;-0.51;91.93;102134.48;112277;245;161774;-55
2024/01/30 03:41:26;;;;;;;;;22.00;16.00;;;;;-0.50;92.00;102129.11;112457;245;39867;-56
2024/01/30 03:44:05;;;;;;;;;26.75;17.50;;;;;-0.48;91.97;102123.89;112288;243;161999;-54
2024/01/30 03:46:50;;;;;;;;;26.00;19.00;;;;;-0.48;92.10;102122.29;112401;245;39713;-51
2024/01/30 03:49:38;;;;;;;;;27.67;20.00;;;;;-0.50;92.08;102120.94;112265;245;162062;-56
2024/01/30 03:52:20;;;;;;;;;19.33;14.67;;;;;-0.49;92.12;102123.77;112409;245;39864;-56
2024/01/30 03:55:04;;;;;;;;;25.00;19.00;;;;;-0.44;92.18;102124.55;112426;245;40025;-56
2024/01/30 03:57:48;;;;;;;;;24.50;19.00;;;;;-0.41;92.17;102122.27;112249;243;161577;-57
2024/01/30 04:00:29;;;;;;;;;25.67;19.00;;;;;-0.40;92.14;102116.20;112413;245;40455;-51
2024/01/30 04:03:08;;;;;;;;;26.00;19.00;;;;;-0.42;92.16;102116.85;112324;243;161906;-51
2024/01/30 04:05:47;;;;;;;;;23.00;17.00;;;;;-0.43;92.13;102117.59;112489;245;41578;-56
2024/01/30 04:08:24;;;;;;;;;26.67;21.00;;;;;-0.41;92.24;102119.46;112325;243;161820;-56
2024/01/30 04:11:09;;;;;;;;;28.00;18.00;;;;;-0.43;92.03;102122.21;112473;245;39476;-53
2024/01/30 04:14:12;;;;;;;;;26.00;18.00;;;;;-0.37;92.15;102120.48;112343;243;161979;-53
2024/01/30 04:16:47;;;;;;;;;28.00;19.00;;;;;-0.40;92.03;102120.96;112173;245;40789;-53
2024/01/30 04:19:28;;;;;;;;;19.00;14.67;;;;;-0.40;92.05;102121.35;112385;243;162327;-56
2024/01/30 04:22:14;;;;;;;;;30.25;20.50;;;;;-0.42;92.22;102124.28;112388;245;39490;-56
2024/01/30 04:25:02;;;;;;;;;27.50;19.00;;;;;-0.40;92.16;102124.86;112421;245;40933;-52
2024/01/30 04:27:40;;;;;;;;;28.00;20.00;;;;;-0.40;92.06;102122.55;112339;243;162119;-52
2024/01/30 04:30:15;;;;;;;;;25.67;18.67;;;;;-0.40;92.18;102128.08;112402;244;41029;-52
2024/01/30 04:32:53;;;;;;;;;21.00;16.50;;;;;-0.36;92.23;102121.66;112285;243;161998;-52
2024/01/30 04:35:35;;;;;;;;;30.33;20.67;;;;;-0.30;92.20;102120.30;112450;246;39251;-52
2024/01/30 04:38:18;;;;;;;;;29.00;20.75;;;;;-0.31;92.19;102119.80;112242;243;162265;-52
2024/01/30 04:40:52;;;;;;;;;21.75;16.75;;;;;-0.36;92.10;102117.04;112403;245;41254;-52
2024/01/30 04:43:27;;;;;;;;;27.00;19.00;;;;;-0.37;92.15;102114.61;112293;243;162364;-52
2024/01/30 04:46:12;;;;;;;;;25.75;18.50;;;;;-0.42;92.14;102117.35;112430;246;39798;-53
2024/01/30 04:48:51;;;;;;;;;19.50;15.00;;;;;-0.44;92.11;102114.61;112437;245;41191;-53
2024/01/30 04:51:31;;;;;;;;;21.75;16.25;;;;;-0.47;92.07;102115.34;112299;243;161678;-52
2024/01/30 04:54:10;;;;;;;;;24.00;18.00;;;;;-0.53;92.08;102116.89;112497;245;40655;-50
2024/01/30 04:56:51;;;;;;;;;25.00;18.00;;;;;-0.56;92.14;102121.98;112358;243;162294;-51
2024/01/30 04:59:35;;;;;;;;;30.50;21.75;;;;;-0.56;92.19;102115.42;112550;245;39574;-51
2024/01/30 05:02:17;;;;;;;;;29.33;22.33;;;;;-0.56;92.29;102114.02;112378;243;161992;-51
2024/01/30 05:04:59;;;;;;;;;28.25;20.00;;;;;-0.57;92.22;102119.58;112564;244;39371;-53
2024/01/30 05:07:41;;;;;;;;;24.00;18.50;;;;;-0.60;92.21;102114.73;111937;244;510164;-53
2024/01/30 05:10:24;;;;;;;;;24.00;18.00;;;;;-0.57;92.29;102112.80;112465;244;39244;-53
2024/01/30 05:13:00;;;;;;;;;30.00;21.00;;;;;-0.58;92.17;102110.95;112424;244;39678;-52
2024/01/30 05:15:39;;;;;;;;;27.00;21.00;;;;;-0.58;92.32;102111.06;112359;243;161775;-56
2024/01/30 05:18:18;;;;;;;;;33.00;20.00;;;;;-0.57;92.34;102112.84;112426;244;39922;-56
2024/01/30 05:20:55;;;;;;;;;26.25;18.00;;;;;-0.55;92.32;102113.26;112281;243;163446;-54
2024/01/30 05:23:33;;;;;;;;;28.00;18.67;;;;;-0.52;92.22;102114.85;112402;245;40846;-53
2024/01/30 05:26:19;;;;;;;;;24.00;18.00;;;;;-0.52;92.30;102115.93;112295;243;161910;-53
2024/01/30 05:28:58;;;;;;;;;23.00;18.00;;;;;-0.51;92.25;102111.79;112350;245;40453;-53
2024/01/30 05:31:39;;;;;;;;;20.75;16.00;;;;;-0.49;92.30;102111.88;112292;243;161993;-55
2024/01/30 05:34:19;;;;;;;;;26.00;20.67;;;;;-0.49;92.27;102116.86;112431;246;39876;-54
2024/01/30 05:36:58;;;;;;;;;25.00;17.00;;;;;-0.52;92.27;102119.09;112452;245;39886;-55
2024/01/30 05:39:37;;;;;;;;;22.00;16.00;;;;;-0.52;92.26;102116.63;112362;245;161964;-52
2024/01/30 05:42:17;;;;;;;;;23.00;18.00;;;;;-0.51;92.30;102118.70;112466;244;40735;-52
2024/01/30 05:44:58;;;;;;;;;24.75;18.00;;;;;-0.50;92.26;102116.89;112338;243;162022;-56
2024/01/30 05:47:39;;;;;;;;;19.00;15.00;;;;;-0.47;92.23;102114.65;112248;245;40847;-56
2024/01/30 05:50:23;;;;;;;;;19.00;14.75;;;;;-0.49;92.25;102113.47;112356;243;161096;-56
2024/01/30 05:53:05;;;;;;;;;21.00;17.00;;;;;-0.52;92.24;102109.40;112464;245;39804;-56
2024/01/30 05:55:49;;;;;;;;;20.25;15.00;;;;;-0.51;92.23;102112.55;112494;245;40674;-53
2024/01/30 05:58:32;;;;;;;;;21.00;15.00;;;;;-0.54;92.27;102114.10;112426;245;38899;-53
2024/01/30 06:01:11;;;;;;;;;21.00;15.00;;;;;-0.57;92.25;102114.05;112448;245;39841;-52
2024/01/30 06:03:48;;;;;;;;;24.00;17.00;;;;;-0.58;92.26;102111.45;112434;245;39337;-52
2024/01/30 06:06:32;;;;;;;;;17.00;12.00;;;;;-0.64;92.24;102114.20;112423;245;39400;-52
2024/01/30 06:09:19;;;;;;;;;22.00;15.00;;;;;-0.67;92.25;102113.33;112304;243;161566;-56
2024/01/30 06:12:05;;;;;;;;;25.50;18.00;;;;;-0.69;92.33;102110.23;112391;246;39358;-57
2024/01/30 06:14:43;;;;;;;;;23.33;20.33;;;;;-0.73;92.40;102111.11;112445;245;41479;-52
2024/01/30 06:17:24;;;;;;;;;25.00;18.00;;;;;-0.70;92.42;102109.21;112417;245;40465;-52
2024/01/30 06:20:01;;;;;;;;;25.00;17.00;;;;;-0.65;92.44;102110.40;112443;245;39718;-53
2024/01/30 06:22:49;;;;;;;;;22.50;15.50;;;;;-0.64;92.45;102111.20;112405;245;40177;-53
2024/01/30 06:25:26;;;;;;;;;21.67;14.67;;;;;-0.59;92.50;102106.88;112510;245;39450;-55
2024/01/30 06:28:03;;;;;;;;;26.00;20.00;;;;;-0.55;92.52;102110.63;112496;245;39296;-55
2024/01/30 06:30:44;;;;;;;;;29.00;17.00;;;;;-0.52;92.54;102117.53;112500;245;40135;-51
2024/01/30 06:33:29;;;;;;;;;22.00;15.67;;;;;-0.43;92.50;102118.65;112407;243;161828;-51
2024/01/30 06:36:08;;;;;;;;;23.00;17.00;;;;;-0.37;92.49;102122.77;112497;244;39278;-57
2024/01/30 06:38:46;;;;;;;;;26.00;18.33;;;;;-0.34;92.48;102121.56;112508;244;39977;-57
2024/01/30 06:41:28;;;;;;;;;27.00;18.00;;;;;-0.27;92.26;102121.38;112538;244;39894;-53
2024/01/30 06:44:18;;;;;;;;;30.00;20.75;;;;;-0.23;92.34;102122.93;112358;243;162500;-56
2024/01/30 06:47:00;;;;;;;;;28.75;20.00;;;;;-0.23;92.36;102124.71;112387;245;39758;-57
2024/01/30 06:49:43;;;;;;;;;23.50;17.75;;;;;-0.20;92.36;102118.17;112423;245;39676;-56
2024/01/30 06:52:25;;;;;;;;;21.00;15.00;;;;;-0.13;92.30;102115.84;112255;243;161943;-56
2024/01/30 06:55:05;;;;;;;;;22.33;18.00;;;;;-0.08;92.17;102119.81;112418;245;40412;-55
2024/01/30 06:57:48;;;;;;;;;19.50;15.00;;;;;-0.05;92.13;102118.60;111996;244;161129;-55
2024/01/30 07:00:34;;;;;;;;;22.25;15.00;;;;;0.01;92.05;102114.61;112448;245;39422;-51
2024/01/30 07:03:09;;;;;;;;;18.00;13.00;;;;;0.07;92.11;102116.58;112282;243;161163;-52
2024/01/30 07:05:52;;;;;;;;;28.00;20.00;;;;;0.13;91.94;102117.14;112451;245;40370;-55
2024/01/30 07:08:32;;;;;;;;;18.00;14.00;;;;;0.20;92.03;102117.68;112292;243;162608;-54
2024/01/30 07:11:07;;;;;;;;;21.67;14.00;;;;;0.59;92.22;102117.67;112506;244;38927;-51
2024/01/30 07:13:44;;;;;;;;;19.50;14.25;;;;;1.24;92.22;102114.67;112484;244;39789;-51
2024/01/30 07:16:23;;;;;;;;;24.00;18.25;;;;;1.92;91.82;102117.20;112337;244;160780;-56
2024/01/30 07:19:02;;;;;;;;;23.50;16.75;;;;;2.81;91.71;102117.48;112497;245;39865;-55
2024/01/30 07:21:47;;;;;;;;;24.00;19.00;;;;;2.88;90.29;102122.36;112314;243;161713;-55
2024/01/30 07:24:31;;;;;;;;;33.00;21.75;;;;;3.49;90.72;102118.02;112465;245;40544;-53
2024/01/30 07:27:07;;;;;;;;;23.00;17.50;;;;;4.56;90.84;102111.79;112278;243;161749;-52
2024/01/30 07:29:46;;;;;;;;;31.50;23.50;;;;;5.43;90.63;102114.66;112449;245;40504;-52
2024/01/30 07:32:23;;;;;;;;;36.00;24.00;;;;;6.02;89.68;102113.91;112243;245;161584;-51
2024/01/30 07:35:02;;;;;;;;;35.00;25.00;;;;;6.46;88.26;102111.86;112335;245;40486;-55
2024/01/30 07:37:47;;;;;;;;;43.33;31.00;;;;;6.66;86.28;102114.07;112379;245;39281;-55
2024/01/30 07:40:23;;;;;;;;;28.50;22.50;;;;;6.60;85.58;102114.89;112249;243;160811;-55
2024/01/30 07:42:58;;;;;;;;;32.00;25.00;;;;;6.73;84.60;102108.48;112410;244;40260;-55
2024/01/30 07:45:39;;;;;;;;;35.00;28.00;;;;;7.31;84.05;102106.70;112270;244;161030;-55
2024/01/30 07:48:25;;;;;;;;;33.00;25.25;;;;;8.49;83.32;102100.14;112402;243;40254;-55
2024/01/30 07:51:07;;;;;;;;;32.67;24.67;;;;;9.23;81.91;102102.30;112278;243;161887;-56
2024/01/30 07:53:50;;;;;;;;;37.00;28.00;;;;;9.36;80.94;102099.48;112383;244;40343;-56
2024/01/30 07:56:32;;;;;;;;;42.00;33.00;;;;;9.16;80.72;102106.90;112275;243;161833;-55
2024/01/30 07:59:15;;;;;;;;;31.00;24.75;;;;;9.17;79.96;102105.38;112381;244;39632;-53
2024/01/30 08:02:05;;;;;;;;;37.00;28.00;;;;;9.58;79.22;102102.00;112398;244;40268;-52
2024/01/30 08:04:48;;;;;;;;;38.25;28.25;;;;;10.17;77.83;102097.45;112396;244;39876;-57
2024/01/30 08:07:30;;;;;;;;;43.00;32.00;;;;;10.85;76.81;102100.69;112431;244;40620;-56
2024/01/30 08:10:12;;;;;;;;;36.00;29.00;;;;;11.22;76.21;102095.80;112333;244;161859;-55
2024/01/30 08:12:55;;;;;;;;;39.75;29.75;;;;;11.46;74.17;102093.74;112470;244;39348;-57
2024/01/30 08:15:39;;;;;;;;;36.00;24.33;;;;;11.25;73.14;102099.14;112364;242;161778;-55
2024/01/30 08:18:18;;;;;;;;;37.50;28.00;;;;;11.11;72.50;102096.31;112452;244;39202;-55
2024/01/30 08:20:54;;;;;;;;;34.75;26.50;;;;;11.41;72.24;102093.73;112507;244;39973;-57
2024/01/30 08:23:28;;;;;;;;;31.50;26.00;;;;;11.85;70.27;102086.84;112436;243;39600;-58
2024/01/30 08:26:11;;;;;;;;;39.33;31.00;;;;;12.57;68.56;102083.69;112470;244;39801;-55
2024/01/30 08:28:57;;;;;;;;;35.00;27.00;;;;;12.93;67.87;102080.00;112332;244;39649;-55
2024/01/30 08:31:41;;;;;;;;;39.00;29.00;;;;;13.21;65.61;102079.34;112403;243;41512;-52
2024/01/30 08:34:22;;;;;;;;;37.00;27.00;;;;;12.97;63.84;102075.94;112267;243;161436;-54
2024/01/30 08:36:57;;;;;;;;;38.50;29.00;;;;;11.80;62.83;102081.17;112393;244;40620;-53
2024/01/30 08:39:42;;;;;;;;;41.25;30.75;;;;;10.07;63.55;102086.14;112430;244;39235;-55
2024/01/30 08:42:26;;;;;;;;;31.50;25.00;;;;;8.86;64.59;102088.09;112396;244;40935;-55
2024/01/30 08:45:00;;;;;;;;;32.50;24.00;;;;;8.02;65.39;102092.91;112294;245;161732;-59
2024/01/30 08:47:38;;;;;;;;;37.00;27.33;;;;;7.41;66.34;102096.74;112426;244;40041;-55
2024/01/30 08:50:17;;;;;;;;;36.00;28.00;;;;;7.12;66.80;102107.41;112497;244;39853;-55
2024/01/30 08:53:03;;;;;;;;;28.50;22.25;;;;;7.05;67.20;102102.22;112515;246;40093;-55
2024/01/30 08:55:42;;;;;;;;;31.25;22.50;;;;;7.44;68.32;102103.14;112494;245;39916;-52
2024/01/30 08:58:22;;;;;;;;;39.00;30.00;;;;;8.25;68.07;102100.85;112291;243;161494;-52
2024/01/30 09:01:05;;;;;;;;;33.00;25.00;;;;;9.04;67.11;102097.73;112479;245;39747;-52
2024/01/30 09:03:46;;;;;;;;;36.00;25.00;;;;;9.15;66.82;102095.27;112293;243;161473;-52
2024/01/30 09:06:21;;;;;;;;;33.50;25.50;;;;;9.31;66.00;102093.48;112404;245;39771;-52
2024/01/30 09:08:58;;;;;;;;;35.25;27.00;;;;;9.04;64.96;102093.27;112448;245;39197;-53
2024/01/30 09:11:41;;;;;;;;;29.75;24.25;;;;;8.56;65.83;102092.73;112429;245;39916;-56
2024/01/30 09:14:17;;;;;;;;;36.67;26.00;;;;;8.47;66.21;102095.67;112478;245;39380;-54
2024/01/30 09:17:00;;;;;;;;;31.00;24.00;;;;;8.85;66.16;102092.42;112269;243;161230;-54
2024/01/30 09:19:42;;;;;;;;;29.67;24.00;;;;;9.42;65.76;102086.31;112454;245;40129;-58
2024/01/30 09:22:19;;;;;;;;;36.75;27.00;;;;;9.87;66.11;102084.39;112303;243;161560;-58
2024/01/30 09:25:00;;;;;;;;;36.00;29.00;;;;;10.34;65.88;102086.84;112470;244;40760;-54
2024/01/30 09:27:40;;;;;;;;;37.00;27.00;;;;;10.76;65.28;102088.11;112308;243;161831;-54
2024/01/30 09:30:18;;;;;;;;;32.00;25.00;;;;;10.88;64.69;102081.20;112481;244;39215;-58
2024/01/30 09:33:00;;;;;;;;;28.00;22.00;;;;;11.37;64.30;102074.95;112290;242;163106;-58
2024/01/30 09:35:47;;;;;;;;;35.33;26.00;;;;;11.89;63.49;102069.91;112411;246;39687;-57
2024/01/30 09:38:26;;;;;;;;;27.00;22.33;;;;;12.18;63.41;102066.45;112417;246;39532;-57
2024/01/30 09:41:15;;;;;;;;;32.00;24.67;;;;;12.36;63.31;102064.16;112389;244;40531;-58
2024/01/30 09:43:58;;;;;;;;;32.50;24.00;;;;;12.75;62.53;102066.15;112425;244;39758;-58
2024/01/30 09:46:38;;;;;;;;;33.00;25.00;;;;;13.08;62.03;102063.52;112307;243;161673;-57
2024/01/30 09:49:14;;;;;;;;;25.50;21.00;;;;;13.39;61.52;102059.02;112424;244;39391;-58
2024/01/30 09:51:54;;;;;;;;;31.00;24.00;;;;;13.53;60.58;102060.23;112282;243;161671;-58
2024/01/30 09:54:32;;;;;;;;;30.00;24.00;;;;;13.50;60.07;102058.52;112425;244;40555;-57
2024/01/30 09:57:09;;;;;;;;;26.67;23.00;;;;;13.58;59.26;102058.23;112310;244;161927;-58
2024/01/30 09:59:48;;;;;;;;;30.75;23.75;;;;;13.92;59.14;102051.91;112473;244;39701;-58
2024/01/30 10:02:32;;;;;;;;;30.67;23.67;;;;;14.11;59.09;102054.96;112449;244;40260;-58
2024/01/30 10:05:12;;;;;;;;;28.67;23.00;;;;;14.37;58.60;102054.56;112441;244;39644;-57
2024/01/30 10:08:00;;;;;;;;;26.50;21.50;;;;;14.39;57.86;102054.88;112454;244;41008;-58
2024/01/30 10:10:48;;;;;;;;;29.00;23.00;;;;;14.54;57.58;102057.55;112254;245;162103;-54
2024/01/30 10:13:23;;;;;;;;;25.00;20.25;;;;;14.73;55.92;102048.98;112347;243;39301;-53
2024/01/30 10:16:05;;;;;;;;;27.75;22.00;;;;;14.85;55.38;102047.19;112289;242;161799;-57
2024/01/30 10:18:48;;;;;;;;;27.50;22.00;;;;;14.74;54.87;102044.52;112400;243;40544;-56
2024/01/30 10:21:25;;;;;;;;;29.00;23.00;;;;;14.69;55.24;102038.73;112324;242;162105;-52
2024/01/30 10:24:06;;;;;;;;;29.00;22.75;;;;;14.91;55.13;102038.11;112417;243;40686;-54
2024/01/30 10:26:44;;;;;;;;;25.00;20.00;;;;;14.96;54.04;102032.55;112326;242;162473;-56
2024/01/30 10:29:21;;;;;;;;;32.00;23.00;;;;;14.41;53.66;102032.36;112469;243;39159;-56
2024/01/30 10:32:07;;;;;;;;;28.25;23.50;;;;;13.73;53.77;102026.90;112478;243;39832;-56
2024/01/30 10:34:53;;;;;;;;;24.00;20.00;;;;;13.24;53.56;102026.18;112352;242;161737;-53
2024/01/30 10:37:32;;;;;;;;;31.00;24.67;;;;;12.56;53.94;102024.48;112467;243;39979;-53
2024/01/30 10:40:10;;;;;;;;;25.67;21.33;;;;;12.02;53.96;102021.53;112285;242;161681;-57
2024/01/30 10:42:55;;;;;;;;;26.25;20.00;;;;;11.53;53.96;102019.02;112422;243;40199;-56
2024/01/30 10:45:32;;;;;;;;;30.00;23.25;;;;;11.03;54.48;102024.27;112287;242;162993;-58
2024/01/30 10:48:10;;;;;;;;;28.00;21.00;;;;;10.74;54.92;102023.30;112394;243;39028;-58
2024/01/30 10:50:57;;;;;;;;;27.00;22.00;;;;;10.45;54.94;102019.98;112299;242;163009;-56
2024/01/30 10:53:40;;;;;;;;;19.33;15.67;;;;;10.17;55.21;102016.59;112369;243;40006;-58
2024/01/30 10:56:22;;;;;;;;;28.00;23.00;;;;;9.96;55.18;102009.39;112462;243;39734;-53
2024/01/30 10:59:00;;;;;;;;;28.00;21.00;;;;;9.81;55.89;102009.63;112264;243;161322;-55
2024/01/30 11:01:41;;;;;;;;;17.00;13.75;;;;;9.75;55.76;102004.62;112461;243;39249;-54
2024/01/30 11:04:17;;;;;;;;;23.00;19.00;;;;;9.54;56.32;102004.06;112324;242;161429;-56
2024/01/30 11:07:02;;;;;;;;;23.00;16.00;;;;;9.43;56.30;101998.31;112514;243;39242;-57
2024/01/30 11:09:51;;;;;;;;;23.00;18.00;;;;;9.38;56.58;102000.37;112371;243;161298;-54
2024/01/30 11:12:30;;;;;;;;;21.00;16.00;;;;;9.22;56.69;101998.71;112437;244;39765;-54
2024/01/30 11:15:10;;;;;;;;;16.00;13.00;;;;;8.97;56.57;101996.48;112310;242;161724;-53
2024/01/30 11:17:58;;;;;;;;;20.75;17.75;;;;;8.83;56.89;101992.89;112416;243;39775;-53
2024/01/30 11:20:37;;;;;;;;;20.33;16.33;;;;;8.85;57.12;101992.20;112430;243;39806;-58
2024/01/30 11:23:26;;;;;;;;;18.67;14.67;;;;;8.80;56.96;101990.27;112356;243;40500;-58
2024/01/30 11:26:01;;;;;;;;;18.50;15.50;;;;;8.72;57.35;101985.64;112432;243;39391;-54
2024/01/30 11:28:45;;;;;;;;;21.25;16.00;;;;;8.65;57.40;101981.14;112242;243;162056;-54
2024/01/30 11:31:28;;;;;;;;;13.50;11.00;;;;;8.65;57.45;101980.73;112432;244;39873;-54
2024/01/30 11:34:11;;;;;;;;;19.50;14.75;;;;;8.64;57.70;101973.24;112317;243;161400;-55
2024/01/30 11:36:58;;;;;;;;;17.25;14.00;;;;;8.65;57.97;101975.35;112459;244;40150;-55
2024/01/30 11:39:41;;;;;;;;;18.75;14.25;;;;;8.65;57.95;101967.27;112364;243;161334;-58
2024/01/30 11:42:26;;;;;;;;;21.50;16.50;;;;;8.56;57.70;101967.09;112467;244;39725;-58
2024/01/30 11:45:09;;;;;;;;;14.00;11.00;;;;;8.52;57.58;101962.90;112333;242;161781;-54
2024/01/30 11:47:45;;;;;;;;;18.25;13.00;;;;;8.42;57.63;101961.29;112398;244;39175;-53
2024/01/30 11:50:21;;;;;;;;;14.75;12.00;;;;;8.36;57.17;101960.96;112477;244;39812;-58
2024/01/30 11:52:59;;;;;;;;;19.25;14.25;;;;;8.27;57.14;101959.04;112250;242;161168;-58
2024/01/30 11:55:38;;;;;;;;;18.50;15.00;;;;;8.22;57.46;101954.10;112444;244;39528;-56
2024/01/30 11:58:15;;;;;;;;;23.00;17.00;;;;;8.23;57.86;101951.33;112222;242;161241;-57
2024/01/30 12:00:57;;;;;;;;;17.00;13.00;;;;;8.17;58.04;101955.79;112431;244;40912;-54
2024/01/30 12:03:34;;;;;;;;;20.00;14.00;;;;;8.15;58.23;101950.05;112267;242;161103;-54
2024/01/30 12:06:11;;;;;;;;;19.67;15.33;;;;;8.11;57.55;101954.68;112423;244;39243;-58
2024/01/30 12:08:57;;;;;;;;;17.75;13.75;;;;;8.09;57.88;101949.35;112464;244;39028;-58
2024/01/30 12:11:32;;;;;;;;;19.00;15.00;;;;;8.05;58.22;101950.73;112446;244;40362;-53